Time;durP1;ratioP1;P1;durP2;ratioP2;P2;SDS_P1;SDS_P2;PMS_P1;PMS_P2;Temp;Humidity;BMP_temperature;BMP_pressure;BME280_temperature;BME280_humidity;BME280_pressure;Samples;Min_cycle;Max_cycle;Signal;HPM_P1;HPM_P2
2022/05/02 00:00:52;;;;;;;6.25;5.65;;;11.80;99.90;;;;;;5094372;28;20258;-71
2022/05/02 00:03:19;;;;;;;6.15;5.57;;;11.80;99.90;;;;;;5093538;28;20230;-71
2022/05/02 00:05:48;;;;;;;10.93;5.95;;;11.80;99.90;;;;;;5088853;28;20195;-71
2022/05/02 00:08:17;;;;;;;6.22;5.78;;;11.80;99.90;;;;;;5092279;28;20293;-69
2022/05/02 00:10:45;;;;;;;6.20;5.65;;;11.80;99.90;;;;;;5093885;28;20269;-69
2022/05/02 00:13:13;;;;;;;7.38;6.28;;;11.80;99.90;;;;;;5093260;28;20290;-69
2022/05/02 00:15:41;;;;;;;5.93;5.43;;;11.70;99.90;;;;;;5094021;28;20256;-69
2022/05/02 00:18:09;;;;;;;6.00;5.60;;;11.80;99.90;;;;;;5094060;28;20249;-70
2022/05/02 00:20:39;;;;;;;6.60;5.85;;;11.80;99.90;;;;;;5093920;28;20313;-70
2022/05/02 00:23:09;;;;;;;6.15;5.10;;;11.80;99.90;;;;;;5092807;28;20272;-70
2022/05/02 00:25:39;;;;;;;7.20;6.50;;;11.60;99.90;;;;;;5093971;28;20205;-71
2022/05/02 00:28:12;;;;;;;5.75;5.30;;;11.70;99.90;;;;;;5087470;28;20241;-70
2022/05/02 00:30:40;;;;;;;5.97;5.38;;;11.70;99.90;;;;;;5087912;28;20317;-71
2022/05/02 00:33:08;;;;;;;5.60;5.10;;;11.70;99.90;;;;;;5092928;28;20198;-69
2022/05/02 00:35:36;;;;;;;6.65;6.05;;;11.70;99.90;;;;;;5092856;28;20202;-71
2022/05/02 00:38:05;;;;;;;10.00;6.25;;;11.70;99.90;;;;;;5083562;28;20199;-71
2022/05/02 00:40:33;;;;;;;7.30;5.68;;;11.60;99.90;;;;;;5093529;28;20264;-71
2022/05/02 00:43:02;;;;;;;7.75;6.40;;;11.50;99.90;;;;;;5092716;28;20238;-70
2022/05/02 00:45:35;;;;;;;6.63;6.13;;;11.50;99.90;;;;;;5093520;28;20206;-71
2022/05/02 00:48:03;;;;;;;7.10;6.40;;;11.50;99.90;;;;;;5092621;28;20194;-71
2022/05/02 00:50:36;;;;;;;7.03;6.32;;;11.50;99.90;;;;;;5093296;28;20253;-71
2022/05/02 00:53:06;;;;;;;6.40;5.90;;;11.40;99.90;;;;;;5092669;28;20671;-71
2022/05/02 00:55:35;;;;;;;7.00;6.40;;;11.40;99.90;;;;;;5093341;28;20210;-70
2022/05/02 00:58:05;;;;;;;6.82;6.15;;;11.50;99.90;;;;;;5093471;28;20207;-70
2022/05/02 01:00:34;;;;;;;7.97;6.35;;;11.50;99.90;;;;;;5092370;28;20253;-70
2022/05/02 01:03:03;;;;;;;6.38;5.88;;;11.40;99.90;;;;;;5092420;28;20288;-70
2022/05/02 01:05:31;;;;;;;6.28;5.70;;;11.50;99.90;;;;;;5092770;28;20194;-70
2022/05/02 01:07:58;;;;;;;7.68;6.10;;;11.50;99.90;;;;;;5089866;28;20209;-70
2022/05/02 01:10:29;;;;;;;6.32;5.88;;;11.50;99.90;;;;;;5092787;28;20287;-70
2022/05/02 01:12:56;;;;;;;6.50;6.00;;;11.50;99.90;;;;;;5090531;28;20267;-69
2022/05/02 01:15:27;;;;;;;5.88;5.38;;;11.40;99.90;;;;;;5091389;28;20675;-71
2022/05/02 01:17:55;;;;;;;8.55;6.28;;;11.50;99.90;;;;;;5078706;28;20603;-71
2022/05/02 01:20:24;;;;;;;5.40;5.00;;;11.50;99.90;;;;;;5092347;28;20249;-71
2022/05/02 01:22:52;;;;;;;8.32;5.85;;;11.50;99.90;;;;;;5091861;28;20256;-71
2022/05/02 01:25:20;;;;;;;6.63;6.07;;;11.50;99.90;;;;;;5092603;28;20819;-71
2022/05/02 01:27:48;;;;;;;6.35;5.85;;;11.50;99.90;;;;;;5092705;28;20217;-71
2022/05/02 01:30:16;;;;;;;7.35;6.80;;;11.50;99.90;;;;;;5092425;28;20756;-71
2022/05/02 01:32:43;;;;;;;7.90;7.15;;;11.50;99.90;;;;;;5091691;28;20226;-70
2022/05/02 01:35:12;;;;;;;8.15;6.63;;;11.30;99.90;;;;;;5092400;28;20207;-71
2022/05/02 01:37:41;;;;;;;6.65;6.05;;;11.30;99.90;;;;;;5092328;28;20277;-72
2022/05/02 01:40:10;;;;;;;11.27;7.20;;;11.30;99.90;;;;;;5092470;28;20250;-70
2022/05/02 01:42:38;;;;;;;6.63;6.10;;;11.20;99.90;;;;;;5091895;28;20252;-70
2022/05/02 01:45:06;;;;;;;7.43;6.65;;;11.00;99.90;;;;;;5082099;28;20672;-70
2022/05/02 01:47:34;;;;;;;6.57;6.00;;;11.00;99.90;;;;;;5089075;28;20223;-70
2022/05/02 01:50:02;;;;;;;7.57;6.97;;;11.00;99.90;;;;;;5092307;28;20270;-70
2022/05/02 01:52:30;;;;;;;7.80;6.90;;;10.90;99.90;;;;;;5091167;28;20202;-70
2022/05/02 01:54:59;;;;;;;8.98;6.90;;;10.90;99.90;;;;;;5091962;28;20264;-71
2022/05/02 01:57:27;;;;;;;7.47;6.78;;;10.80;99.90;;;;;;5091825;28;20222;-70
2022/05/02 01:59:55;;;;;;;6.90;6.30;;;10.90;99.90;;;;;;5091935;28;20280;-70
2022/05/02 02:02:23;;;;;;;6.47;5.88;;;10.90;99.90;;;;;;5091263;28;20589;-69
2022/05/02 02:07:36;;;;;;;7.45;6.28;;;10.90;99.90;;;;;;5091877;28;20698;-70
2022/05/02 02:10:07;;;;;;;11.02;6.80;;;11.00;99.90;;;;;;5091299;28;20715;-70
2022/05/02 02:12:34;;;;;;;6.90;6.40;;;10.90;99.90;;;;;;5090198;28;20255;-70
2022/05/02 02:15:02;;;;;;;7.43;6.82;;;10.90;99.90;;;;;;5090460;28;20311;-71
2022/05/02 02:17:30;;;;;;;7.50;6.75;;;10.90;99.90;;;;;;5084997;28;20636;-70
2022/05/02 02:19:58;;;;;;;7.47;6.88;;;11.00;99.90;;;;;;5091627;28;20227;-70
2022/05/02 02:22:26;;;;;;;7.63;6.90;;;10.90;99.90;;;;;;5090890;28;20214;-69
2022/05/02 02:24:54;;;;;;;6.70;6.30;;;11.00;99.90;;;;;;5091589;28;20194;-71
2022/05/02 02:27:23;;;;;;;8.23;7.45;;;10.90;99.90;;;;;;5091582;28;20256;-70
2022/05/02 02:29:51;;;;;;;7.07;6.63;;;10.90;99.90;;;;;;5091130;28;20226;-71
2022/05/02 02:32:19;;;;;;;8.15;7.30;;;10.90;99.90;;;;;;5091078;28;20210;-70
2022/05/02 02:34:47;;;;;;;8.50;7.70;;;10.90;99.90;;;;;;5091408;28;20213;-70
2022/05/02 02:37:16;;;;;;;8.15;7.35;;;10.80;99.90;;;;;;5091308;28;20698;-71
2022/05/02 02:39:45;;;;;;;7.80;7.05;;;10.80;99.90;;;;;;5091243;28;20245;-71
2022/05/02 02:42:12;;;;;;;10.90;7.85;;;10.90;99.90;;;;;;5090588;28;20230;-70
2022/05/02 02:44:42;;;;;;;7.28;6.45;;;10.90;99.90;;;;;;5084748;28;20320;-70
2022/05/02 02:47:10;;;;;;;7.78;6.95;;;10.80;99.90;;;;;;5084802;28;20206;-71
2022/05/02 02:49:38;;;;;;;7.75;7.03;;;10.90;99.90;;;;;;5091356;28;20214;-70
2022/05/02 02:52:07;;;;;;;7.90;7.20;;;10.80;99.90;;;;;;5090131;28;20804;-70
2022/05/02 02:54:35;;;;;;;8.95;6.55;;;10.80;99.90;;;;;;5090818;28;20297;-70
2022/05/02 02:57:03;;;;;;;9.23;6.65;;;10.70;99.90;;;;;;5090900;28;20232;-70
2022/05/02 02:59:31;;;;;;;8.40;6.82;;;10.80;99.90;;;;;;5090906;28;20275;-70
2022/05/02 03:02:00;;;;;;;7.80;7.00;;;10.90;99.90;;;;;;5090626;28;20241;-67
2022/05/02 03:07:14;;;;;;;7.65;6.95;;;10.90;99.90;;;;;;5091101;28;20206;-70
2022/05/02 03:09:42;;;;;;;8.20;7.50;;;10.80;99.90;;;;;;5090624;28;20703;-70
2022/05/02 03:12:11;;;;;;;7.72;7.13;;;10.80;99.90;;;;;;5120108;22;20242;-62
2022/05/02 03:14:39;;;;;;;7.25;6.75;;;10.90;99.90;;;;;;5107733;28;20194;-62
2022/05/02 03:17:08;;;;;;;10.25;7.55;;;10.80;99.90;;;;;;5104102;28;20217;-62
2022/05/02 03:19:36;;;;;;;8.30;7.50;;;10.90;99.90;;;;;;5111243;28;20300;-62
2022/05/02 03:22:04;;;;;;;7.72;6.63;;;10.80;99.90;;;;;;5097554;28;20303;-62
2022/05/02 03:24:32;;;;;;;7.65;7.05;;;10.70;99.90;;;;;;5094891;28;20672;-62
2022/05/02 03:27:00;;;;;;;8.98;8.25;;;10.60;99.90;;;;;;5095133;28;20647;-62
2022/05/02 03:29:29;;;;;;;7.90;7.15;;;10.60;99.90;;;;;;5094656;28;20667;-63
2022/05/02 03:31:56;;;;;;;7.25;6.60;;;10.40;99.90;;;;;;5094518;28;20261;-62
2022/05/02 03:34:26;;;;;;;8.85;7.07;;;10.40;99.90;;;;;;5094526;28;20241;-63
2022/05/02 03:36:54;;;;;;;8.82;8.02;;;10.40;99.90;;;;;;5088075;28;20265;-63
2022/05/02 03:39:21;;;;;;;7.82;7.03;;;10.40;99.90;;;;;;5091674;28;20217;-63
2022/05/02 03:41:49;;;;;;;7.50;6.93;;;10.40;99.90;;;;;;5094603;28;20222;-62
2022/05/02 03:44:17;;;;;;;8.25;7.47;;;10.30;99.90;;;;;;5081374;28;20660;-62
2022/05/02 03:46:45;;;;;;;8.20;7.40;;;10.30;99.90;;;;;;5085162;28;20667;-63
2022/05/02 03:49:13;;;;;;;8.38;7.55;;;10.20;99.90;;;;;;5087942;28;20199;-63
2022/05/02 03:51:43;;;;;;;8.07;7.18;;;10.30;99.90;;;;;;5087809;28;20261;-63
2022/05/02 03:54:10;;;;;;;7.82;7.10;;;10.30;99.90;;;;;;5086495;28;20706;-62
2022/05/02 03:56:38;;;;;;;8.40;7.40;;;10.40;99.90;;;;;;5093494;28;20203;-62
2022/05/02 03:59:06;;;;;;;8.93;8.02;;;10.40;99.90;;;;;;5087747;28;20226;-63
2022/05/02 04:01:36;;;;;;;8.30;7.50;;;10.40;99.90;;;;;;5087947;28;20269;-62
2022/05/02 04:04:04;;;;;;;10.60;7.65;;;10.40;99.90;;;;;;5087364;28;20203;-62
2022/05/02 04:06:32;;;;;;;8.77;8.00;;;10.30;99.90;;;;;;5094185;28;20195;-62
2022/05/02 04:09:02;;;;;;;8.38;7.68;;;10.20;99.90;;;;;;5093972;28;20195;-62
2022/05/02 04:11:30;;;;;;;8.95;8.15;;;10.20;99.90;;;;;;5101645;28;20291;-62
2022/05/02 04:13:58;;;;;;;7.95;7.30;;;10.20;99.90;;;;;;5113439;28;20285;-62
2022/05/02 04:16:26;;;;;;;8.57;7.72;;;10.20;99.90;;;;;;5107729;28;20608;-61
2022/05/02 04:18:54;;;;;;;8.35;7.60;;;10.00;99.90;;;;;;5114194;28;20286;-62
2022/05/02 04:21:22;;;;;;;9.68;8.80;;;9.90;99.90;;;;;;5114084;28;20297;-62
2022/05/02 04:23:50;;;;;;;11.13;7.20;;;9.90;99.90;;;;;;5113215;28;20651;-62
2022/05/02 04:26:19;;;;;;;7.82;7.20;;;9.90;99.90;;;;;;5114258;28;20678;-63
2022/05/02 04:28:47;;;;;;;8.35;7.55;;;10.00;99.90;;;;;;5113842;28;20202;-61
2022/05/02 04:31:15;;;;;;;11.35;8.32;;;10.10;99.90;;;;;;5113801;28;20663;-62
2022/05/02 04:33:43;;;;;;;7.22;6.53;;;10.10;99.90;;;;;;5112258;28;20670;-62
2022/05/02 04:36:11;;;;;;;10.40;7.30;;;10.20;99.90;;;;;;5113854;28;20240;-62
2022/05/02 04:38:39;;;;;;;7.55;6.95;;;10.20;99.90;;;;;;5113838;28;20253;-62
2022/05/02 04:41:07;;;;;;;10.15;7.20;;;10.20;99.90;;;;;;5113886;28;20222;-62
2022/05/02 04:43:36;;;;;;;7.93;7.13;;;10.20;99.90;;;;;;5113076;28;20293;-62
2022/05/02 04:46:03;;;;;;;8.25;7.50;;;10.10;99.90;;;;;;5103858;28;20194;-61
2022/05/02 04:48:31;;;;;;;8.95;7.45;;;10.10;99.90;;;;;;5113460;28;20678;-62
2022/05/02 04:50:59;;;;;;;8.43;7.80;;;10.20;99.90;;;;;;5113634;28;20739;-62
2022/05/02 04:53:27;;;;;;;8.48;6.95;;;10.20;99.90;;;;;;5112939;28;20238;-62
2022/05/02 04:55:55;;;;;;;8.38;7.68;;;10.20;99.90;;;;;;5113495;28;20288;-62
2022/05/02 04:58:23;;;;;;;7.82;7.10;;;10.20;99.90;;;;;;5113602;28;20209;-60
2022/05/02 05:00:52;;;;;;;8.70;7.90;;;10.10;99.90;;;;;;5113470;28;20233;-63
2022/05/02 05:03:21;;;;;;;8.23;7.43;;;10.10;99.90;;;;;;5112286;28;20666;-61
2022/05/02 05:05:49;;;;;;;7.80;7.05;;;10.20;99.90;;;;;;5113490;28;20198;-61
2022/05/02 05:08:17;;;;;;;8.57;7.43;;;10.20;99.90;;;;;;5112811;28;20205;-61
2022/05/02 05:10:56;;;;;;;8.15;7.13;;;10.30;99.90;;;;;;5109920;28;20202;-62
2022/05/02 05:13:27;;;;;;;8.90;7.55;;;10.30;99.90;;;;;;5111202;28;20288;-61
2022/05/02 05:16:24;;;;;;;7.45;6.75;;;10.40;99.90;;;;;;5109219;28;20287;-61
2022/05/02 05:19:10;;;;;;;8.85;7.45;;;10.30;99.90;;;;;;5110364;28;20202;-61
2022/05/02 05:21:49;;;;;;;11.98;7.55;;;10.40;99.90;;;;;;5111907;28;20233;-62
2022/05/02 05:24:58;;;;;;;7.82;7.03;;;10.40;99.90;;;;;;5110941;28;20280;-62
2022/05/02 05:27:47;;;;;;;9.25;6.32;;;10.40;99.90;;;;;;5027822;28;20307;-62
2022/05/02 05:30:19;;;;;;;8.02;7.22;;;10.40;99.90;;;;;;5028551;28;20197;-62
2022/05/02 05:32:59;;;;;;;7.45;6.82;;;10.50;99.90;;;;;;5081026;28;20258;-62
2022/05/02 05:35:41;;;;;;;9.77;6.78;;;10.60;99.90;;;;;;5110712;28;20278;-61
2022/05/02 05:38:12;;;;;;;7.43;6.72;;;10.70;99.90;;;;;;5108734;28;20202;-61
2022/05/02 05:40:42;;;;;;;10.68;6.60;;;10.80;99.90;;;;;;5111466;28;20221;-62
2022/05/02 05:43:28;;;;;;;10.70;6.05;;;10.80;99.90;;;;;;5110831;28;20236;-61
2022/05/02 05:46:13;;;;;;;7.20;6.53;;;10.80;99.90;;;;;;5099414;28;20293;-61
2022/05/02 05:49:02;;;;;;;6.93;6.32;;;11.00;99.90;;;;;;5111554;28;20218;-61
2022/05/02 05:51:35;;;;;;;7.20;6.13;;;11.00;99.90;;;;;;5111389;28;20249;-60
2022/05/02 05:54:16;;;;;;;7.95;6.75;;;11.10;99.90;;;;;;5109132;28;20190;-62
2022/05/02 05:56:53;;;;;;;11.85;7.97;;;11.40;99.90;;;;;;5110353;28;20221;-63
2022/05/02 05:59:33;;;;;;;7.68;6.25;;;11.60;99.90;;;;;;5111331;28;20234;-62
2022/05/02 06:02:17;;;;;;;7.13;6.43;;;11.70;99.90;;;;;;5109439;28;20217;-62
2022/05/02 06:04:49;;;;;;;6.97;6.30;;;11.80;99.90;;;;;;5112143;28;20232;-63
2022/05/02 06:07:19;;;;;;;7.80;6.30;;;12.00;99.90;;;;;;5106214;28;20285;-63
2022/05/02 06:09:49;;;;;;;8.60;6.85;;;12.10;99.90;;;;;;5111968;28;20218;-63
2022/05/02 06:12:20;;;;;;;10.48;6.65;;;12.10;99.90;;;;;;5110881;28;20361;-64
2022/05/02 06:20:26;;;;;;;6.95;6.25;;;12.60;99.90;;;;;;5110613;28;20301;-62
2022/05/02 06:22:54;;;;;;;11.20;6.50;;;12.70;99.90;;;;;;5109424;28;20220;-63
2022/05/02 06:25:29;;;;;;;5.90;5.40;;;12.70;99.90;;;;;;5110577;28;20673;-67
2022/05/02 06:27:57;;;;;;;7.82;5.43;;;12.80;99.90;;;;;;5107932;28;20237;-63
2022/05/02 06:30:27;;;;;;;7.68;6.25;;;12.90;99.90;;;;;;5111072;28;20263;-64
2022/05/02 06:32:58;;;;;;;7.05;6.35;;;13.10;99.90;;;;;;5107881;28;20742;-62
2022/05/02 06:35:32;;;;;;;7.13;6.45;;;13.20;99.90;;;;;;5110099;28;20260;-63
2022/05/02 06:38:11;;;;;;;10.15;6.53;;;13.40;99.90;;;;;;5111679;28;20565;-64
2022/05/02 06:40:49;;;;;;;8.32;6.93;;;13.50;99.90;;;;;;5111440;28;20764;-64
2022/05/02 06:43:24;;;;;;;7.55;6.47;;;13.70;99.90;;;;;;5110670;28;20300;-64
2022/05/02 06:46:01;;;;;;;8.02;6.95;;;13.70;99.90;;;;;;5099016;28;20674;-65
2022/05/02 06:48:36;;;;;;;7.60;6.90;;;13.80;99.90;;;;;;5106447;28;20198;-65
2022/05/02 06:51:07;;;;;;;8.65;7.85;;;13.90;99.90;;;;;;5111476;28;20212;-64
2022/05/02 06:53:58;;;;;;;7.22;6.63;;;14.00;99.90;;;;;;5110572;28;20202;-64
2022/05/02 06:56:34;;;;;;;7.95;7.05;;;14.00;99.90;;;;;;5110804;28;20263;-65
2022/05/02 06:59:07;;;;;;;9.05;8.15;;;14.10;99.90;;;;;;5104895;28;20233;-64
2022/05/02 07:01:46;;;;;;;8.35;7.50;;;14.20;99.90;;;;;;5105653;28;20257;-64
2022/05/02 07:04:31;;;;;;;11.45;7.38;;;14.30;99.90;;;;;;5110364;28;20624;-64
2022/05/02 07:07:14;;;;;;;9.02;8.20;;;14.50;99.90;;;;;;5111483;28;20270;-64
2022/05/02 07:09:46;;;;;;;8.63;6.85;;;14.60;99.90;;;;;;5104911;28;20219;-64
2022/05/02 07:12:19;;;;;;;9.15;8.25;;;14.80;99.90;;;;;;5104081;28;20302;-64
2022/05/02 07:15:01;;;;;;;8.98;8.10;;;15.00;99.90;;;;;;5110066;28;20201;-64
2022/05/02 07:17:44;;;;;;;7.78;7.07;;;15.00;99.90;;;;;;5100755;28;20198;-64
2022/05/02 07:20:20;;;;;;;7.78;7.07;;;14.70;99.90;;;;;;5109076;28;20214;-64
2022/05/02 07:22:58;;;;;;;8.48;7.68;;;14.70;99.90;;;;;;5110226;28;20221;-64
2022/05/02 07:25:29;;;;;;;8.30;7.60;;;14.80;99.90;;;;;;5110775;28;20201;-64
2022/05/02 07:28:09;;;;;;;8.15;7.55;;;14.80;99.90;;;;;;5104650;28;20233;-64
2022/05/02 07:30:39;;;;;;;7.80;7.10;;;15.00;99.90;;;;;;5110820;28;20777;-64
2022/05/02 07:33:10;;;;;;;9.73;8.82;;;15.30;99.90;;;;;;5110205;28;20198;-64
2022/05/02 07:35:39;;;;;;;9.05;8.15;;;15.40;99.90;;;;;;5111103;28;20209;-64
2022/05/02 07:38:09;;;;;;;8.15;7.32;;;15.60;99.90;;;;;;5110942;28;20234;-64
2022/05/02 07:41:22;;;;;;;11.30;7.82;;;15.70;99.90;;;;;;5110771;28;20236;-64
2022/05/02 07:43:28;;;;;;;9.13;8.20;;;16.00;99.90;;;;;;5110065;28;20208;-64
2022/05/02 07:45:57;;;;;;;7.38;6.65;;;16.00;99.90;;;;;;5096320;28;20201;-64
2022/05/02 07:48:26;;;;;;;7.80;7.00;;;15.80;99.90;;;;;;5110469;28;20206;-65
2022/05/02 07:50:57;;;;;;;10.18;7.10;;;15.80;99.90;;;;;;5110703;28;20233;-63
2022/05/02 07:53:28;;;;;;;10.27;8.68;;;15.60;99.90;;;;;;5103403;28;20202;-65
2022/05/02 07:55:57;;;;;;;9.05;8.18;;;15.50;99.90;;;;;;5104380;28;20205;-65
2022/05/02 07:58:26;;;;;;;8.60;7.80;;;15.40;99.90;;;;;;5110483;28;20689;-65
2022/05/02 08:00:54;;;;;;;9.73;8.55;;;15.50;99.90;;;;;;5110576;28;20230;-64
2022/05/02 08:03:24;;;;;;;9.73;7.53;;;15.60;99.90;;;;;;5109963;28;20685;-65
2022/05/02 08:06:03;;;;;;;8.02;7.30;;;15.80;99.90;;;;;;5110325;28;20232;-65
2022/05/02 08:08:39;;;;;;;8.65;7.80;;;15.90;99.90;;;;;;5111852;28;20265;-63
2022/05/02 08:11:18;;;;;;;9.48;7.38;;;16.10;99.90;;;;;;5114597;28;20233;-64
2022/05/02 08:13:58;;;;;;;9.35;6.95;;;16.10;99.90;;;;;;5113682;28;20213;-64
2022/05/02 08:16:30;;;;;;;7.75;7.05;;;16.10;99.90;;;;;;5107178;28;20206;-64
2022/05/02 08:19:17;;;;;;;8.05;6.60;;;16.20;99.90;;;;;;5113412;28;20198;-65
2022/05/02 08:21:51;;;;;;;8.07;6.90;;;16.30;99.90;;;;;;5114063;28;20626;-65
2022/05/02 08:27:45;;;;;;;6.63;5.65;;;16.50;99.90;;;;;;5113898;28;20197;-63
2022/05/02 08:30:21;;;;;;;6.50;6.00;;;16.70;99.90;;;;;;5114044;28;20197;-64
2022/05/02 08:32:59;;;;;;;7.03;6.35;;;16.90;99.90;;;;;;5113201;28;20232;-63
2022/05/02 08:35:50;;;;;;;7.18;5.90;;;17.30;99.90;;;;;;5114027;28;20200;-65
2022/05/02 08:38:48;;;;;;;6.13;5.55;;;17.40;99.90;;;;;;5113914;28;20216;-65
2022/05/02 08:41:49;;;;;;;11.60;7.35;;;17.60;99.90;;;;;;5113518;28;20741;-65
2022/05/02 08:44:50;;;;;;;7.80;6.47;;;17.70;99.90;;;;;;5107439;28;20230;-65
2022/05/02 08:47:57;;;;;;;6.15;5.65;;;17.90;99.90;;;;;;5107950;28;20228;-64
2022/05/02 08:51:00;;;;;;;7.13;6.28;;;18.00;99.90;;;;;;5113655;28;20202;-64
2022/05/02 08:54:07;;;;;;;10.73;6.55;;;17.70;99.90;;;;;;5112868;28;20236;-65
2022/05/02 08:57:03;;;;;;;6.85;6.15;;;17.80;99.90;;;;;;5099608;28;20217;-64
2022/05/02 09:00:04;;;;;;;7.60;5.90;;;18.10;99.90;;;;;;5113578;28;20204;-65
2022/05/02 09:03:10;;;;;;;6.93;6.15;;;18.30;99.90;;;;;;5113180;28;20210;-64
2022/05/02 09:05:52;;;;;;;6.95;5.75;;;18.00;99.90;;;;;;5083845;28;20209;-64
2022/05/02 09:08:55;;;;;;;7.57;5.97;;;18.00;99.90;;;;;;5107903;28;20289;-64
2022/05/02 09:11:40;;;;;;;7.53;5.25;;;18.20;99.90;;;;;;5123475;22;20294;-71
2022/05/02 09:14:44;;;;;;;6.32;5.40;;;18.50;99.90;;;;;;5024062;28;20284;-70
2022/05/02 09:17:48;;;;;;;6.00;5.40;;;18.90;99.90;;;;;;5029185;28;20201;-70
2022/05/02 09:20:50;;;;;;;6.25;5.65;;;19.00;99.90;;;;;;5027033;28;20220;-71
2022/05/02 09:23:52;;;;;;;6.45;5.80;;;18.70;99.90;;;;;;5124944;27;20221;-71
2022/05/02 09:27:05;;;;;;;7.07;4.75;;;18.70;99.90;;;;;;5134825;27;20201;-71
2022/05/02 09:30:17;;;;;;;8.13;5.13;;;18.70;99.90;;;;;;5127362;27;20622;-71
2022/05/02 09:32:48;;;;;;;5.95;5.45;;;18.70;99.90;;;;;;5132576;27;20224;-71
2022/05/02 09:35:20;;;;;;;17.45;10.30;;;18.90;99.90;;;;;;5133310;27;20201;-70
2022/05/02 09:37:57;;;;;;;6.70;5.10;;;19.20;99.90;;;;;;5133386;27;20197;-71
2022/05/02 09:40:34;;;;;;;15.85;8.18;;;19.30;99.90;;;;;;5127874;27;20225;-71
2022/05/02 09:49:33;;;;;;;5.90;5.40;;;19.30;99.90;;;;;;5132705;27;20255;-71
2022/05/02 09:49:55;;;;;;;8.50;5.60;;;19.80;99.90;;;;;;5133045;27;20197;-71
2022/05/02 09:52:29;;;;;;;6.30;5.75;;;19.80;99.90;;;;;;5132206;27;20216;-71
2022/05/02 09:58:28;;;;;;;5.50;4.93;;;19.70;99.40;;;;;;5132928;27;20200;-71
2022/05/02 10:01:08;;;;;;;6.85;5.65;;;19.80;98.50;;;;;;5127533;27;20236;-71
2022/05/02 10:04:01;;;;;;;6.97;5.40;;;19.80;99.20;;;;;;5132224;27;20205;-71
2022/05/02 10:06:32;;;;;;;6.85;5.47;;;19.70;99.00;;;;;;5132685;27;20214;-71
2022/05/02 10:09:05;;;;;;;7.65;6.80;;;19.80;99.00;;;;;;5126056;27;20205;-72
2022/05/02 10:11:54;;;;;;;7.30;5.13;;;19.40;99.40;;;;;;5126444;27;20285;-72
2022/05/02 10:15:10;;;;;;;6.22;5.32;;;19.30;99.90;;;;;;5132146;27;20618;-71
2022/05/02 10:18:19;;;;;;;6.50;5.85;;;19.50;99.40;;;;;;5110028;27;20218;-71
2022/05/02 10:21:02;;;;;;;6.88;6.20;;;19.70;99.90;;;;;;5132354;27;20209;-71
2022/05/02 10:23:49;;;;;;;7.28;5.97;;;19.80;99.80;;;;;;5131798;27;20196;-70
2022/05/02 10:26:31;;;;;;;6.25;5.65;;;20.00;99.90;;;;;;5132211;27;20206;-71
2022/05/02 10:29:36;;;;;;;6.90;5.35;;;20.50;99.80;;;;;;5132485;27;20201;-70
2022/05/02 10:32:06;;;;;;;7.32;5.43;;;20.80;99.90;;;;;;5130906;27;20213;-71
2022/05/02 10:34:38;;;;;;;9.80;5.95;;;21.20;99.80;;;;;;5133209;27;20207;-70
2022/05/02 10:37:08;;;;;;;8.05;6.40;;;21.40;99.50;;;;;;5132271;27;20201;-71
2022/05/02 10:39:46;;;;;;;7.13;5.75;;;21.10;97.10;;;;;;5132337;27;20208;-70
2022/05/02 10:42:18;;;;;;;6.47;5.72;;;20.90;97.90;;;;;;5131176;27;20725;-70
2022/05/02 10:44:52;;;;;;;7.00;6.10;;;20.80;98.50;;;;;;5124997;27;20193;-71
2022/05/02 10:47:21;;;;;;;6.93;6.32;;;20.80;99.10;;;;;;5126679;27;20636;-71
2022/05/02 10:50:04;;;;;;;7.07;6.15;;;20.90;97.80;;;;;;5132051;27;20258;-71
2022/05/02 10:52:54;;;;;;;10.15;5.70;;;21.00;98.30;;;;;;5124603;27;20224;-71
2022/05/02 10:55:26;;;;;;;6.30;5.70;;;21.20;98.10;;;;;;5131824;27;20204;-71
2022/05/02 10:57:56;;;;;;;7.72;6.15;;;21.50;98.60;;;;;;5131944;27;20201;-71
2022/05/02 11:00:24;;;;;;;6.18;5.57;;;21.70;97.50;;;;;;5131897;27;20208;-71
2022/05/02 11:03:15;;;;;;;5.55;5.15;;;21.90;97.70;;;;;;5131616;27;20221;-71
2022/05/02 11:05:54;;;;;;;7.95;5.75;;;22.10;96.40;;;;;;5131765;27;20198;-71
2022/05/02 11:08:35;;;;;;;8.52;5.53;;;22.20;97.60;;;;;;5131380;27;20197;-70
2022/05/02 11:11:06;;;;;;;7.47;6.07;;;22.30;96.20;;;;;;5132003;27;20386;-69
2022/05/02 11:13:45;;;;;;;5.90;5.40;;;22.20;95.40;;;;;;5110517;28;20190;-71
2022/05/02 11:16:23;;;;;;;6.32;5.72;;;22.10;95.60;;;;;;5104134;28;20201;-70
2022/05/02 11:22:16;;;;;;;7.40;5.18;;;21.90;94.90;;;;;;5108622;28;20248;-69
2022/05/02 11:24:53;;;;;;;6.15;5.55;;;22.10;94.30;;;;;;5109718;28;20209;-70
2022/05/02 11:27:31;;;;;;;5.97;5.47;;;22.40;93.90;;;;;;5111215;28;20205;-70
2022/05/02 11:30:04;;;;;;;6.57;5.80;;;22.90;94.40;;;;;;5110930;28;20202;-70
2022/05/02 11:32:40;;;;;;;9.82;5.90;;;23.10;93.80;;;;;;5110518;28;20343;-71
2022/05/02 11:35:13;;;;;;;6.60;5.95;;;23.00;93.50;;;;;;5110934;28;20197;-71
2022/05/02 11:37:53;;;;;;;6.22;5.63;;;22.90;92.90;;;;;;5110918;28;20221;-69
2022/05/02 11:40:28;;;;;;;6.50;6.00;;;22.80;93.00;;;;;;5111202;28;20213;-68
2022/05/02 11:42:57;;;;;;;6.53;5.82;;;22.90;92.90;;;;;;5110485;28;20224;-71
2022/05/02 11:45:33;;;;;;;10.45;5.97;;;23.20;92.90;;;;;;5104337;28;20671;-71
2022/05/02 11:48:17;;;;;;;6.38;5.93;;;23.30;92.10;;;;;;5112061;28;20201;-71
2022/05/02 11:50:46;;;;;;;6.63;6.03;;;23.40;91.80;;;;;;5114969;28;20213;-70
2022/05/02 11:53:16;;;;;;;5.85;5.25;;;23.90;91.50;;;;;;5114002;28;20249;-71
2022/05/02 11:55:47;;;;;;;6.32;5.82;;;23.60;91.60;;;;;;5114579;28;20289;-71
2022/05/02 11:58:26;;;;;;;6.50;5.88;;;23.60;92.90;;;;;;5108364;28;20197;-71
2022/05/02 12:01:02;;;;;;;6.85;6.18;;;23.70;91.70;;;;;;5114740;28;20194;-71
2022/05/02 12:03:52;;;;;;;6.90;4.63;;;23.90;92.30;;;;;;5113658;28;20221;-70
2022/05/02 12:06:31;;;;;;;7.40;6.70;;;24.40;91.70;;;;;;5114476;28;20588;-70
2022/05/02 12:09:03;;;;;;;7.70;6.07;;;24.70;91.20;;;;;;5108941;28;20550;-70
2022/05/02 12:11:33;;;;;;;6.53;5.90;;;24.70;90.60;;;;;;5117710;27;20237;-70
2022/05/02 12:14:01;;;;;;;6.00;5.43;;;24.50;90.30;;;;;;5134086;27;20193;-71
2022/05/02 12:16:33;;;;;;;6.65;5.78;;;24.70;91.20;;;;;;5127919;27;20194;-71
2022/05/02 12:19:08;;;;;;;7.10;6.43;;;24.90;90.40;;;;;;5134940;27;20201;-71
2022/05/02 12:21:40;;;;;;;5.35;5.00;;;25.00;90.20;;;;;;5135090;27;20224;-71
2022/05/02 12:24:10;;;;;;;6.18;5.20;;;25.10;90.30;;;;;;5134145;27;20198;-71
2022/05/02 12:26:46;;;;;;;6.63;5.65;;;25.20;91.30;;;;;;5135223;27;20208;-71
2022/05/02 12:29:17;;;;;;;6.18;5.68;;;25.30;89.40;;;;;;5134699;27;20201;-70
2022/05/02 12:31:53;;;;;;;5.90;5.30;;;25.10;88.50;;;;;;5134691;27;20221;-71
2022/05/02 12:34:22;;;;;;;5.93;5.32;;;25.20;88.80;;;;;;5134318;27;20200;-70
2022/05/02 12:36:57;;;;;;;6.15;5.65;;;25.70;87.70;;;;;;5134764;27;20677;-71
2022/05/02 12:39:26;;;;;;;6.20;5.70;;;25.70;87.10;;;;;;5134607;27;20728;-71
2022/05/02 12:42:14;;;;;;;6.55;5.22;;;25.50;86.60;;;;;;5133617;27;20633;-68
2022/05/02 12:44:47;;;;;;;5.90;5.40;;;25.90;86.80;;;;;;5127735;27;20524;-71
2022/05/02 12:47:20;;;;;;;6.72;6.10;;;26.20;86.30;;;;;;5128906;27;20654;-71
2022/05/02 12:50:01;;;;;;;6.22;5.72;;;26.00;84.50;;;;;;5134561;27;20202;-70
2022/05/02 12:52:30;;;;;;;6.78;5.93;;;25.90;85.80;;;;;;5126678;27;20624;-71
2022/05/02 12:54:59;;;;;;;6.68;6.07;;;26.10;85.10;;;;;;5126495;27;20197;-70
2022/05/02 13:00:31;;;;;;;7.38;6.15;;;25.50;84.30;;;;;;5131784;27;20197;-69
2022/05/02 13:03:15;;;;;;;8.10;7.05;;;24.80;86.50;;;;;;5133311;27;20235;-70
2022/05/02 13:05:53;;;;;;;12.50;6.95;;;24.60;86.00;;;;;;5133939;27;20201;-71
2022/05/02 13:08:33;;;;;;;7.30;6.70;;;24.60;87.90;;;;;;5133721;27;20204;-71
2022/05/02 13:11:07;;;;;;;6.47;5.95;;;24.50;87.10;;;;;;5133887;27;20567;-71
2022/05/02 13:13:47;;;;;;;5.82;5.22;;;24.40;88.10;;;;;;5133140;27;20211;-70
2022/05/02 13:16:18;;;;;;;6.60;6.00;;;24.40;87.80;;;;;;5131866;27;20197;-70
2022/05/02 13:18:49;;;;;;;8.30;6.32;;;24.90;88.90;;;;;;5127128;27;20722;-71
2022/05/02 13:21:18;;;;;;;6.95;6.15;;;24.90;89.00;;;;;;5131338;27;20194;-71
2022/05/02 13:23:48;;;;;;;7.85;6.20;;;24.90;88.10;;;;;;5132932;27;20228;-71
2022/05/02 13:26:47;;;;;;;6.68;5.97;;;24.60;87.50;;;;;;5133782;27;20569;-70
2022/05/02 13:29:28;;;;;;;6.18;5.68;;;24.20;86.50;;;;;;5133293;27;20206;-71
2022/05/02 13:32:00;;;;;;;8.48;5.95;;;24.50;87.90;;;;;;5133302;27;20217;-71
2022/05/02 13:34:43;;;;;;;7.70;5.32;;;25.30;86.40;;;;;;5133498;27;20587;-71
2022/05/02 13:37:17;;;;;;;5.68;5.18;;;25.70;85.10;;;;;;5133499;27;20399;-70
2022/05/02 13:39:52;;;;;;;6.45;5.85;;;25.40;85.20;;;;;;5133124;27;20201;-71
2022/05/02 13:42:36;;;;;;;7.15;5.85;;;25.40;84.60;;;;;;5132504;27;20240;-71
2022/05/02 13:45:11;;;;;;;5.63;4.88;;;24.90;86.30;;;;;;5129575;27;20208;-70
2022/05/02 13:47:49;;;;;;;6.45;5.82;;;24.70;88.10;;;;;;5128468;27;20204;-71
2022/05/02 13:50:23;;;;;;;5.22;4.82;;;24.60;86.70;;;;;;5133153;27;20223;-71
2022/05/02 13:52:55;;;;;;;5.32;4.75;;;24.20;88.00;;;;;;5132081;27;20221;-71